Time;durP1;ratioP1;P1;durP2;ratioP2;P2;SDS_P1;SDS_P2;PMS_P1;PMS_P2;Temp;Humidity;BMP_temperature;BMP_pressure;BME280_temperature;BME280_humidity;BME280_pressure;Samples;Min_cycle;Max_cycle;Signal;HPM_P1;HPM_P2
2021/03/11 00:01:42;;;;;;;0.90;0.90;;;;;;;0.31;100.00;90752.00;4973194;29;20210;-96
2021/03/11 00:04:10;;;;;;;0.80;0.80;;;;;;;0.28;100.00;90770.56;4964510;29;20730;-96
2021/03/11 00:06:37;;;;;;;1.13;0.90;;;;;;;0.29;100.00;90797.16;4968938;29;20198;-96
2021/03/11 00:09:04;;;;;;;0.50;0.50;;;;;;;0.21;100.00;90817.16;4969247;29;20190;-96
2021/03/11 00:11:31;;;;;;;1.50;1.40;;;;;;;0.36;100.00;90805.53;4976861;28;20198;-96
2021/03/11 00:16:33;;;;;;;0.80;0.80;;;;;;;0.36;100.00;90839.88;6011194;23;20182;-96
2021/03/11 00:19:00;;;;;;;1.27;1.17;;;;;;;0.19;100.00;90891.44;5009334;28;20173;-96
2021/03/11 00:21:28;;;;;;;0.90;0.90;;;;;;;0.35;100.00;90882.22;5008462;28;20270;-96
2021/03/11 00:23:55;;;;;;;0.90;0.90;;;;;;;0.35;100.00;90891.75;5012701;28;20197;-96
2021/03/11 00:26:23;;;;;;;1.77;1.33;;;;;;;0.29;100.00;90923.66;5012655;28;20204;-96
2021/03/11 00:28:49;;;;;;;1.80;1.57;;;;;;;0.26;100.00;90935.22;5009969;28;20227;-96
2021/03/11 00:31:16;;;;;;;0.90;0.90;;;;;;;0.22;100.00;90941.84;5013047;28;20176;-96
2021/03/11 00:33:43;;;;;;;1.07;0.97;;;;;;;0.22;100.00;90959.91;5152067;23;20232;-96
2021/03/11 00:36:11;;;;;;;0.80;0.80;;;;;;;0.22;100.00;90970.25;5393596;23;20263;-96
2021/03/11 00:38:39;;;;;;;0.80;0.80;;;;;;;0.22;100.00;90972.81;5374096;23;20216;-96
2021/03/11 00:41:05;;;;;;;2.13;1.70;;;;;;;0.08;100.00;91003.22;5270025;23;20216;-96
2021/03/11 00:43:32;;;;;;;1.10;1.10;;;;;;;0.14;100.00;90998.94;5008830;28;20180;-96
2021/03/11 00:45:59;;;;;;;0.80;0.80;;;;;;;0.23;100.00;90982.91;5455710;23;21098;-96
2021/03/11 00:48:26;;;;;;;1.33;1.13;;;;;;;0.19;100.00;90979.22;5013533;28;20176;-96
2021/03/11 00:58:39;;;;;;;1.03;0.90;;;;;;;0.09;100.00;91017.69;4991845;28;20192;-96
2021/03/11 01:01:06;;;;;;;0.90;0.90;;;;;;;0.07;100.00;91035.22;4991560;28;20196;-96
2021/03/11 01:03:33;;;;;;;0.70;0.70;;;;;;;0.12;100.00;91024.22;4994029;28;20181;-96
2021/03/11 01:06:00;;;;;;;1.03;1.00;;;;;;;0.06;100.00;91032.84;4988719;28;20181;-96
2021/03/11 01:08:27;;;;;;;0.80;0.80;;;;;;;0.03;100.00;91039.22;4996244;28;20220;-96
2021/03/11 01:10:54;;;;;;;1.00;1.00;;;;;;;0.10;100.00;91029.59;4992313;28;20239;-95
2021/03/11 01:13:21;;;;;;;0.70;0.70;;;;;;;0.04;100.00;91046.00;4995809;28;20193;-96
2021/03/11 01:15:49;;;;;;;0.73;0.73;;;;;;;0.14;100.00;91041.06;4984911;28;20225;-96
2021/03/11 01:18:17;;;;;;;0.60;0.60;;;;;;;0.09;100.00;91040.94;4993266;28;20203;-96
2021/03/11 01:20:44;;;;;;;0.70;0.70;;;;;;;0.12;100.00;91044.88;5360556;23;21213;-96
2021/03/11 01:25:41;;;;;;;1.33;1.00;;;;;;;0.05;100.00;91057.09;4971245;28;20214;-96
2021/03/11 01:28:08;;;;;;;0.90;0.90;;;;;;;-0.06;100.00;91082.66;4974879;29;20198;-96
2021/03/11 01:30:34;;;;;;;0.80;0.80;;;;;;;0.07;100.00;91058.44;4970480;29;20209;-96
2021/03/11 01:33:02;;;;;;;1.10;1.10;;;;;;;0.05;100.00;91054.50;4971436;29;20218;-96
2021/03/11 01:35:30;;;;;;;1.00;0.97;;;;;;;-0.03;100.00;91056.41;4969550;29;20605;-96
2021/03/11 01:37:57;;;;;;;0.77;0.77;;;;;;;0.04;100.00;91035.66;4970200;29;20225;-94
2021/03/11 01:40:24;;;;;;;0.90;0.90;;;;;;;0.15;100.00;91021.19;4969093;29;20245;-96
2021/03/11 01:42:51;;;;;;;0.80;0.80;;;;;;;0.15;100.00;91029.72;4965050;29;20197;-96
2021/03/11 01:45:19;;;;;;;0.80;0.80;;;;;;;-0.01;100.00;91058.75;4971227;29;20194;-96
2021/03/11 01:47:46;;;;;;;0.77;0.77;;;;;;;0.11;100.00;91038.94;5053246;23;20239;-95
2021/03/11 01:50:15;;;;;;;0.83;0.83;;;;;;;-0.08;100.00;91069.19;4994143;28;20201;-95
2021/03/11 01:52:43;;;;;;;0.90;0.90;;;;;;;-0.03;100.00;91055.63;4993315;28;20232;-95
2021/03/11 01:55:11;;;;;;;0.90;0.90;;;;;;;-0.18;100.00;91083.63;4993788;28;20225;-94
2021/03/11 01:57:38;;;;;;;0.80;0.80;;;;;;;-0.14;100.00;91054.59;4993508;28;20235;-96
2021/03/11 02:00:07;;;;;;;0.70;0.70;;;;;;;0.00;100.00;91013.91;4995678;28;20204;-96
2021/03/11 02:02:34;;;;;;;3.10;1.00;;;;;;;0.09;100.00;90976.41;4997266;28;20652;-95
2021/03/11 02:05:02;;;;;;;0.70;0.70;;;;;;;0.11;100.00;90976.19;4997031;28;20239;-96
2021/03/11 02:07:29;;;;;;;0.70;0.70;;;;;;;0.19;100.00;90962.94;4997148;28;20208;-95
2021/03/11 02:09:56;;;;;;;0.90;0.90;;;;;;;0.09;100.00;90988.53;4996848;28;20193;-95
2021/03/11 02:12:34;;;;;;;0.90;0.90;;;;;;;0.29;100.00;90955.41;4996684;28;20201;-95
2021/03/11 02:15:08;;;;;;;2.30;1.87;;;;;;;0.36;100.00;90942.38;4996655;28;20294;-95
2021/03/11 02:17:41;;;;;;;0.90;0.90;;;;;;;0.05;100.00;91001.09;4996705;28;20188;-94
2021/03/11 02:20:29;;;;;;;0.90;0.90;;;;;;;-0.29;100.00;91047.25;4997110;28;20563;-95
2021/03/11 02:23:25;;;;;;;1.50;1.40;;;;;;;-0.19;100.00;90948.69;4996560;28;20195;-95
2021/03/11 02:26:05;;;;;;;1.20;1.10;;;;;;;-0.02;100.00;90861.88;4996960;28;20192;-93
2021/03/11 02:28:38;;;;;;;0.90;0.90;;;;;;;-0.07;100.00;90828.22;4996458;28;20231;-95
2021/03/11 02:31:07;;;;;;;1.87;0.97;;;;;;;0.07;100.00;90786.66;4996346;28;20670;-93
2021/03/11 02:33:37;;;;;;;1.13;0.90;;;;;;;0.05;100.00;90771.41;4996275;28;20204;-95
2021/03/11 02:36:06;;;;;;;0.50;0.50;;;;;;;0.08;100.00;90798.56;4996502;28;20224;-95
2021/03/11 02:38:34;;;;;;;0.90;0.70;;;;;;;0.16;100.00;90811.88;4996622;28;20662;-96
2021/03/11 02:41:03;;;;;;;1.17;0.67;;;;;;;0.12;100.00;90846.13;4996158;28;20204;-96
2021/03/11 02:43:30;;;;;;;0.70;0.70;;;;;;;-0.22;100.00;90914.84;4996245;28;20200;-95
2021/03/11 02:45:58;;;;;;;0.70;0.70;;;;;;;-0.11;100.00;90914.81;4996665;28;20701;-94
2021/03/11 02:48:27;;;;;;;0.50;0.50;;;;;;;-0.05;100.00;90937.13;4996035;28;20301;-96
2021/03/11 02:50:57;;;;;;;0.70;0.70;;;;;;;-0.25;100.00;90991.66;4996399;28;20687;-95
2021/03/11 02:53:24;;;;;;;0.80;0.80;;;;;;;-0.14;100.00;90991.88;4996208;28;20196;-95
2021/03/11 02:55:52;;;;;;;0.70;0.70;;;;;;;-0.16;100.00;91022.28;4995844;28;20223;-95
2021/03/11 02:58:20;;;;;;;0.57;0.57;;;;;;;-0.17;100.00;91049.06;4995991;28;20210;-96
2021/03/11 03:00:48;;;;;;;0.73;0.73;;;;;;;-0.15;100.00;91053.00;4996023;28;20200;-95
2021/03/11 03:03:15;;;;;;;0.63;0.63;;;;;;;-0.21;100.00;91086.66;4996589;28;20201;-95
2021/03/11 03:05:44;;;;;;;0.60;0.60;;;;;;;-0.17;100.00;91095.50;4996371;28;20219;-95
2021/03/11 03:08:11;;;;;;;0.77;0.77;;;;;;;-0.21;100.00;91125.34;4996516;28;20215;-96
2021/03/11 03:10:39;;;;;;;0.50;0.50;;;;;;;-0.11;100.00;91121.22;4995731;28;20582;-95
2021/03/11 03:13:12;;;;;;;0.70;0.70;;;;;;;-0.16;100.00;91134.00;4995801;28;20196;-95
2021/03/11 03:15:39;;;;;;;0.80;0.80;;;;;;;-0.26;100.00;91164.72;4995734;28;20240;-94
2021/03/11 03:18:06;;;;;;;1.20;0.63;;;;;;;-0.19;100.00;91162.03;4995717;28;20607;-95
2021/03/11 03:20:33;;;;;;;0.50;0.50;;;;;;;-0.09;100.00;91160.50;4995394;28;20736;-95
2021/03/11 03:23:05;;;;;;;0.67;0.67;;;;;;;-0.04;100.00;91155.47;4995598;28;20196;-96
2021/03/11 03:25:32;;;;;;;0.60;0.60;;;;;;;-0.07;100.00;91171.41;4995488;28;20195;-94
2021/03/11 03:28:00;;;;;;;0.60;0.60;;;;;;;-0.14;100.00;91199.09;4997714;28;20196;-95
2021/03/11 03:30:28;;;;;;;0.70;0.70;;;;;;;-0.04;100.00;91193.38;5000568;28;20254;-96
2021/03/11 03:32:55;;;;;;;0.70;0.70;;;;;;;-0.18;100.00;91228.88;5001225;28;20692;-94
2021/03/11 03:35:22;;;;;;;0.60;0.60;;;;;;;-0.25;100.00;91253.97;4998149;28;20259;-95
2021/03/11 03:37:50;;;;;;;0.53;0.53;;;;;;;-0.07;100.00;91242.84;4996929;28;20215;-95
2021/03/11 03:40:19;;;;;;;0.77;0.77;;;;;;;-0.11;100.00;91263.13;4996303;28;20681;-95
2021/03/11 03:42:52;;;;;;;0.50;0.50;;;;;;;-0.15;100.00;91272.31;4995597;28;20764;-95
2021/03/11 03:45:24;;;;;;;0.70;0.70;;;;;;;-0.22;100.00;91299.19;4995952;28;20184;-95
2021/03/11 03:47:51;;;;;;;0.80;0.80;;;;;;;-0.23;100.00;91297.63;4994898;28;20291;-94
2021/03/11 03:50:20;;;;;;;0.70;0.70;;;;;;;-0.13;100.00;91290.19;4995132;28;20235;-96
2021/03/11 03:52:49;;;;;;;0.53;0.53;;;;;;;-0.17;100.00;91299.31;4995040;28;20196;-96
2021/03/11 03:55:18;;;;;;;0.70;0.70;;;;;;;-0.20;100.00;91310.09;4994981;28;20771;-94
2021/03/11 03:57:49;;;;;;;0.70;0.70;;;;;;;-0.18;100.00;91320.97;4995212;28;20192;-95
2021/03/11 04:00:18;;;;;;;0.60;0.60;;;;;;;-0.31;100.00;91348.50;4995764;28;20224;-96
2021/03/11 04:02:46;;;;;;;0.60;0.60;;;;;;;-0.20;100.00;91359.13;4995108;28;20339;-95
2021/03/11 04:05:14;;;;;;;0.60;0.60;;;;;;;-0.15;100.00;91372.94;4994753;28;20204;-95
2021/03/11 04:07:41;;;;;;;0.57;0.57;;;;;;;-0.13;100.00;91376.09;4994699;28;20200;-94
2021/03/11 04:10:09;;;;;;;0.60;0.60;;;;;;;-0.21;100.00;91401.38;4995060;28;20274;-94
2021/03/11 04:12:45;;;;;;;0.50;0.50;;;;;;;-0.29;100.00;91443.72;4998510;28;20200;-95
2021/03/11 04:15:13;;;;;;;0.60;0.60;;;;;;;-0.18;100.00;91439.66;5001902;28;20223;-94
2021/03/11 04:17:43;;;;;;;0.70;0.70;;;;;;;-0.22;100.00;91456.56;4994470;28;20224;-95
2021/03/11 04:20:11;;;;;;;0.90;0.90;;;;;;;-0.18;100.00;91473.19;4995331;28;20632;-94
2021/03/11 04:22:40;;;;;;;1.00;0.90;;;;;;;-0.33;100.00;91514.78;4994588;28;20266;-93
2021/03/11 04:25:08;;;;;;;0.90;0.90;;;;;;;-0.32;100.00;91529.28;4994539;28;20202;-93
2021/03/11 04:27:35;;;;;;;0.87;0.87;;;;;;;-0.36;100.00;91562.44;4994331;28;20196;-94
2021/03/11 04:30:05;;;;;;;1.27;1.27;;;;;;;-0.27;100.00;91579.25;4998114;28;20255;-95
2021/03/11 04:32:35;;;;;;;1.57;1.47;;;;;;;-0.14;100.00;91585.31;4994503;28;20208;-95
2021/03/11 04:35:01;;;;;;;1.10;1.10;;;;;;;-0.26;100.00;91627.25;4994634;28;20267;-94
2021/03/11 04:37:29;;;;;;;0.70;0.70;;;;;;;-0.23;100.00;91648.50;4994640;28;20196;-94
2021/03/11 04:39:56;;;;;;;0.80;0.80;;;;;;;-0.21;100.00;91667.91;4994049;28;20696;-93
2021/03/11 04:42:23;;;;;;;1.17;1.10;;;;;;;-0.19;100.00;91688.34;4993946;28;20197;-94
2021/03/11 04:44:50;;;;;;;1.77;1.67;;;;;;;-0.23;100.00;91715.56;4993815;28;20200;-95
2021/03/11 04:47:18;;;;;;;2.27;1.60;;;;;;;-0.12;100.00;91715.72;4994859;28;20312;-93
2021/03/11 04:49:46;;;;;;;1.70;1.50;;;;;;;-0.13;100.00;91734.78;4994312;28;20242;-85
2021/03/11 04:52:15;;;;;;;4.80;2.83;;;;;;;-0.16;100.00;91757.63;5002279;28;20291;-91
2021/03/11 04:54:42;;;;;;;3.47;2.77;;;;;;;-0.18;100.00;91775.09;5011349;28;20257;-95
2021/03/11 04:57:09;;;;;;;5.13;3.67;;;;;;;-0.19;100.00;91783.81;5318115;23;20290;-93
2021/03/11 04:59:37;;;;;;;2.40;2.20;;;;;;;-0.05;100.00;91775.03;4993644;28;20192;-96
2021/03/11 05:02:06;;;;;;;2.83;2.20;;;;;;;-0.07;100.00;91777.03;5008837;28;20238;-89
2021/03/11 05:04:35;;;;;;;4.23;3.40;;;;;;;-0.10;100.00;91803.25;4996270;28;20334;-92
2021/03/11 05:07:02;;;;;;;2.67;2.40;;;;;;;-0.06;100.00;91819.91;4993932;28;20204;-93
2021/03/11 05:09:28;;;;;;;1.87;1.77;;;;;;;0.01;100.00;91815.53;4993518;28;20652;-94
2021/03/11 05:11:55;;;;;;;1.90;1.80;;;;;;;-0.20;100.00;91847.53;4993419;28;20266;-94
2021/03/11 05:14:22;;;;;;;1.10;1.10;;;;;;;-0.14;100.00;91845.94;4993420;28;20231;-93
2021/03/11 05:16:49;;;;;;;2.00;1.80;;;;;;;-0.04;100.00;91848.88;4993482;28;20231;-94
2021/03/11 05:19:16;;;;;;;1.47;1.37;;;;;;;-0.14;100.00;91866.56;4993703;28;20228;-94
2021/03/11 05:21:43;;;;;;;1.40;1.30;;;;;;;-0.23;100.00;91891.03;4993751;28;20279;-93
2021/03/11 05:24:10;;;;;;;0.87;0.87;;;;;;;-0.16;100.00;91881.47;4993890;28;20204;-94
2021/03/11 05:26:37;;;;;;;3.00;1.93;;;;;;;-0.12;100.00;91888.59;4993979;28;20287;-92
2021/03/11 05:29:04;;;;;;;1.10;1.00;;;;;;;-0.31;100.00;91908.28;4985739;28;20574;-94
2021/03/11 05:31:30;;;;;;;1.20;1.10;;;;;;;-0.16;100.00;91894.38;4993386;28;20231;-94
2021/03/11 05:33:57;;;;;;;0.90;0.90;;;;;;;-0.20;100.00;91906.88;4976573;28;20204;-94
2021/03/11 05:36:27;;;;;;;4.53;3.07;;;;;;;-0.18;100.00;91902.31;4997442;28;20258;-94
2021/03/11 05:38:55;;;;;;;3.07;2.43;;;;;;;-0.21;100.00;91912.22;4997774;28;20204;-95
2021/03/11 05:41:23;;;;;;;2.87;2.60;;;;;;;-0.23;100.00;91911.66;4998074;28;20200;-93
2021/03/11 05:43:52;;;;;;;5.53;4.43;;;;;;;-0.21;100.00;91917.41;4998260;28;20196;-94
2021/03/11 05:46:19;;;;;;;3.57;3.20;;;;;;;-0.16;100.00;91904.69;4997450;28;20197;-94
2021/03/11 05:48:47;;;;;;;2.50;2.30;;;;;;;-0.04;100.00;91888.38;4997021;28;20224;-93
2021/03/11 05:51:14;;;;;;;4.20;3.80;;;;;;;0.05;100.00;91877.84;4997051;28;20216;-92
2021/03/11 05:53:42;;;;;;;2.47;2.27;;;;;;;-0.14;100.00;91897.53;4997156;28;20217;-94
2021/03/11 05:56:11;;;;;;;2.30;2.10;;;;;;;-0.06;100.00;91902.50;4997228;28;20284;-94
2021/03/11 05:58:38;;;;;;;1.83;1.70;;;;;;;0.00;100.00;91901.72;4996760;28;20370;-94
2021/03/11 06:01:06;;;;;;;1.40;1.30;;;;;;;0.13;100.00;91893.91;4997063;28;20200;-92
2021/03/11 06:03:33;;;;;;;0.90;0.90;;;;;;;-0.01;100.00;91910.41;4997156;28;20584;-94
2021/03/11 06:06:01;;;;;;;1.03;1.03;;;;;;;0.16;100.00;91901.25;4997077;28;20204;-92
2021/03/11 06:08:28;;;;;;;0.90;0.90;;;;;;;0.01;100.00;91934.25;4996984;28;20588;-93
2021/03/11 06:10:55;;;;;;;1.50;1.40;;;;;;;0.08;100.00;91952.31;4996732;28;20625;-94
2021/03/11 06:13:24;;;;;;;1.50;1.40;;;;;;;0.11;100.00;91970.78;4996919;28;20295;-94
2021/03/11 06:15:59;;;;;;;1.53;1.20;;;;;;;0.17;100.00;91974.31;4996602;28;20283;-94
2021/03/11 06:18:27;;;;;;;2.50;2.00;;;;;;;0.15;100.00;92002.16;4996601;28;20192;-93
2021/03/11 06:20:54;;;;;;;1.30;1.30;;;;;;;0.21;100.00;92007.31;4996837;28;20227;-93
2021/03/11 06:23:21;;;;;;;0.83;0.83;;;;;;;0.28;100.00;92021.97;4996504;28;20208;-93
2021/03/11 06:25:54;;;;;;;1.43;1.33;;;;;;;0.28;100.00;92043.47;4996546;28;20200;-93
2021/03/11 06:28:50;;;;;;;2.60;1.73;;;;;;;0.24;100.00;92070.66;4996774;28;20192;-94
2021/03/11 06:31:18;;;;;;;0.70;0.70;;;;;;;0.51;100.00;92065.47;4996804;28;20211;-94
2021/03/11 06:33:45;;;;;;;1.50;1.40;;;;;;;0.47;100.00;92091.72;4996453;28;20200;-95
2021/03/11 06:36:12;;;;;;;1.77;1.20;;;;;;;0.38;100.00;92130.84;4996436;28;20661;-94
2021/03/11 06:38:39;;;;;;;3.33;2.60;;;;;;;0.45;100.00;92124.72;4996504;28;20236;-96
2021/03/11 06:41:06;;;;;;;3.23;2.90;;;;;;;0.52;100.00;92141.97;4996121;28;20200;-92
2021/03/11 06:43:34;;;;;;;6.03;4.30;;;;;;;0.51;100.00;92169.59;4996111;28;20197;-95
2021/03/11 06:46:08;;;;;;;3.90;3.03;;;;;;;0.53;100.00;92177.16;4994786;28;20231;-95
2021/03/11 06:48:35;;;;;;;58.43;30.97;;;;;;;0.46;100.00;92201.22;4996338;28;20204;-95
2021/03/11 06:51:03;;;;;;;60.93;32.83;;;;;;;0.49;100.00;92207.78;4995936;28;20719;-93
2021/03/11 06:53:31;;;;;;;12.67;9.10;;;;;;;0.39;100.00;92230.59;4996143;28;20586;-95
2021/03/11 06:56:18;;;;;;;6.53;5.67;;;;;;;0.42;100.00;92233.59;4995730;28;20220;-93
2021/03/11 06:58:55;;;;;;;1.73;1.63;;;;;;;0.39;100.00;92248.69;4994973;28;20282;-95
2021/03/11 07:01:23;;;;;;;2.63;2.30;;;;;;;0.48;100.00;92257.81;4996026;28;20192;-95
2021/03/11 07:03:50;;;;;;;2.27;2.17;;;;;;;0.44;100.00;92277.31;4996003;28;20204;-95
2021/03/11 07:06:32;;;;;;;2.70;2.50;;;;;;;0.47;100.00;92288.03;4996054;28;20575;-96
2021/03/11 07:08:59;;;;;;;1.40;1.30;;;;;;;0.54;100.00;92290.63;4995744;28;20252;-96
2021/03/11 07:11:27;;;;;;;2.23;2.07;;;;;;;0.59;100.00;92296.03;4995864;28;20200;-96
2021/03/11 07:13:57;;;;;;;2.97;2.67;;;;;;;0.46;100.00;92320.03;4995471;28;20211;-95
2021/03/11 07:16:26;;;;;;;1.80;1.70;;;;;;;0.50;100.00;92335.94;4995407;28;20255;-94
2021/03/11 07:19:11;;;;;;;1.63;1.50;;;;;;;0.44;100.00;92341.88;4995679;28;20203;-95
2021/03/11 07:21:44;;;;;;;1.10;1.10;;;;;;;0.39;100.00;92364.91;4995779;28;20548;-95
2021/03/11 07:24:11;;;;;;;1.23;1.20;;;;;;;0.42;100.00;92370.50;4995283;28;20201;-95
2021/03/11 07:26:38;;;;;;;0.87;0.87;;;;;;;0.37;100.00;92398.69;4995631;28;20318;-94
2021/03/11 07:29:19;;;;;;;1.20;1.10;;;;;;;0.31;100.00;92403.81;4995610;28;20204;-96
2021/03/11 07:31:55;;;;;;;1.20;1.20;;;;;;;0.41;100.00;92412.81;4995324;28;20208;-94
2021/03/11 07:34:25;;;;;;;1.43;1.33;;;;;;;0.51;100.00;92409.06;4995295;28;20188;-95
2021/03/11 07:36:57;;;;;;;1.00;0.90;;;;;;;0.54;100.00;92429.38;4995298;28;20195;-93
2021/03/11 07:39:26;;;;;;;0.80;0.80;;;;;;;0.58;100.00;92426.19;4995465;28;20188;-96
2021/03/11 07:41:54;;;;;;;1.23;1.13;;;;;;;0.40;100.00;92446.59;4995120;28;20192;-95
2021/03/11 07:44:23;;;;;;;1.50;1.40;;;;;;;0.49;100.00;92444.66;4994982;28;20243;-95
2021/03/11 07:46:51;;;;;;;1.33;1.30;;;;;;;0.63;100.00;92433.38;4995021;28;20203;-95
2021/03/11 07:49:18;;;;;;;1.17;1.17;;;;;;;0.64;100.00;92420.25;4994919;28;20224;-95
2021/03/11 07:51:46;;;;;;;2.20;2.00;;;;;;;0.65;100.00;92421.06;4995051;28;20685;-95
2021/03/11 07:54:14;;;;;;;3.13;2.83;;;;;;;0.59;100.00;92438.16;4995133;28;20211;-95
2021/03/11 07:56:41;;;;;;;3.97;3.57;;;;;;;0.78;100.00;92402.22;4994691;28;20200;-95
2021/03/11 07:59:08;;;;;;;2.83;2.43;;;;;;;0.94;100.00;92400.09;4994516;28;20231;-94
2021/03/11 08:01:47;;;;;;;9.87;7.70;;;;;;;0.99;100.00;92404.66;4994760;28;20200;-94
2021/03/11 08:04:18;;;;;;;5.33;4.47;;;;;;;1.14;100.00;92401.91;4994697;28;20188;-95
2021/03/11 08:06:46;;;;;;;7.60;5.27;;;;;;;1.07;100.00;92432.94;4995149;28;20184;-96
2021/03/11 08:09:13;;;;;;;2.07;1.90;;;;;;;0.92;100.00;92478.84;4994597;28;20199;-96
2021/03/11 08:11:41;;;;;;;2.83;2.57;;;;;;;1.11;100.00;92477.28;4994455;28;20254;-93
2021/03/11 08:14:19;;;;;;;7.73;6.10;;;;;;;1.03;100.00;92500.75;4994277;28;20236;-94
2021/03/11 08:16:48;;;;;;;3.60;2.97;;;;;;;0.94;100.00;92523.41;4994521;28;20247;-95
2021/03/11 08:19:48;;;;;;;6.43;5.63;;;;;;;0.91;100.00;92532.34;4994827;28;20608;-95
2021/03/11 08:22:15;;;;;;;4.83;3.17;;;;;;;0.97;100.00;92548.88;4995668;28;20208;-94
2021/03/11 08:24:46;;;;;;;10.40;6.87;;;;;;;0.94;100.00;92569.94;4995365;28;20200;-96
2021/03/11 08:27:42;;;;;;;3.40;2.73;;;;;;;0.92;100.00;92574.50;4995917;28;20196;-94
2021/03/11 08:30:51;;;;;;;4.80;3.57;;;;;;;0.83;100.00;92579.03;4995486;28;20204;-94
2021/03/11 08:33:46;;;;;;;5.37;3.07;;;;;;;0.80;100.00;92579.41;4993287;28;20200;-94
2021/03/11 08:36:39;;;;;;;3.53;2.73;;;;;;;0.74;100.00;92605.19;4960535;28;20608;-93
2021/03/11 08:39:33;;;;;;;3.77;2.70;;;;;;;0.77;100.00;92599.66;4994994;28;20193;-93
2021/03/11 08:42:48;;;;;;;3.50;3.13;;;;;;;0.86;100.00;92606.25;4979327;28;20196;-93
2021/03/11 08:46:02;;;;;;;1.50;1.40;;;;;;;0.83;100.00;92612.63;4995685;28;20196;-93
2021/03/11 08:48:40;;;;;;;1.07;1.07;;;;;;;0.92;100.00;92603.72;4995500;28;20258;-93
2021/03/11 08:51:10;;;;;;;1.20;1.20;;;;;;;0.85;100.00;92633.13;4993993;28;20188;-93
2021/03/11 08:53:49;;;;;;;1.83;1.70;;;;;;;0.91;100.00;92638.31;4994967;28;20204;-91
2021/03/11 08:56:43;;;;;;;1.23;1.13;;;;;;;0.79;100.00;92651.94;4994343;28;20263;-93
2021/03/11 08:59:18;;;;;;;1.23;1.20;;;;;;;0.71;100.00;92668.41;4996304;28;20231;-94
2021/03/11 09:01:46;;;;;;;1.80;1.70;;;;;;;0.82;100.00;92664.50;4996023;28;20200;-93
2021/03/11 09:04:41;;;;;;;1.40;1.30;;;;;;;0.86;100.00;92666.50;4995574;28;20200;-94
2021/03/11 09:07:12;;;;;;;8.33;4.73;;;;;;;0.83;100.00;92679.03;4994704;28;20235;-94
2021/03/11 09:09:41;;;;;;;16.47;10.73;;;;;;;0.91;100.00;92684.88;4993944;28;20630;-93
2021/03/11 09:12:09;;;;;;;4.03;3.43;;;;;;;0.99;100.00;92676.16;4994371;28;20198;-93
2021/03/11 09:14:38;;;;;;;3.00;2.80;;;;;;;0.89;100.00;92689.41;4994567;28;20207;-93
2021/03/11 09:17:07;;;;;;;2.70;2.37;;;;;;;0.92;100.00;92698.59;4994921;28;20220;-92
2021/03/11 09:19:43;;;;;;;2.90;2.53;;;;;;;0.94;100.00;92694.03;4994534;28;20219;-94
2021/03/11 09:22:23;;;;;;;3.60;3.30;;;;;;;1.04;100.00;92679.00;4994227;28;20669;-92
2021/03/11 09:25:14;;;;;;;3.20;2.90;;;;;;;1.09;100.00;92697.31;4995348;28;20196;-94
2021/03/11 09:27:52;;;;;;;3.00;2.30;;;;;;;1.16;100.00;92705.13;4990773;28;20204;-93
2021/03/11 09:30:21;;;;;;;1.87;1.77;;;;;;;1.07;100.00;92726.94;4993852;28;20184;-94
2021/03/11 09:32:48;;;;;;;1.40;1.30;;;;;;;1.07;100.00;92732.09;4994941;28;20695;-95
2021/03/11 09:35:16;;;;;;;2.97;2.47;;;;;;;1.10;100.00;92748.03;4993813;28;20450;-93
2021/03/11 09:37:52;;;;;;;1.60;1.50;;;;;;;1.14;100.00;92740.72;4994045;28;20673;-93
2021/03/11 09:40:34;;;;;;;2.10;2.00;;;;;;;1.19;100.00;92731.41;4993758;28;20676;-95
2021/03/11 09:43:17;;;;;;;2.00;1.90;;;;;;;1.10;100.00;92750.63;4993301;28;20188;-92
2021/03/11 09:45:48;;;;;;;1.70;1.60;;;;;;;1.15;100.00;92765.59;4993332;28;20657;-91
2021/03/11 09:48:18;;;;;;;2.50;2.30;;;;;;;1.28;100.00;92762.31;4993174;28;20210;-92
2021/03/11 09:51:01;;;;;;;1.70;1.60;;;;;;;1.25;100.00;92773.03;4993544;28;20224;-90
2021/03/11 09:53:54;;;;;;;1.50;1.40;;;;;;;1.31;100.00;92767.09;4993712;28;20196;-91
2021/03/11 09:56:23;;;;;;;1.90;1.80;;;;;;;1.15;100.00;92796.66;4975355;28;20748;-93
2021/03/11 09:58:52;;;;;;;3.70;3.40;;;;;;;1.19;100.00;92798.66;4993044;28;20717;-92
2021/03/11 10:01:24;;;;;;;1.77;1.67;;;;;;;1.24;100.00;92800.69;4993165;28;20211;-90
2021/03/11 10:03:52;;;;;;;2.13;2.03;;;;;;;1.22;100.00;92825.97;4993053;28;20219;-91
2021/03/11 10:06:20;;;;;;;2.30;2.10;;;;;;;1.26;100.00;92831.56;4993064;28;20192;-91
2021/03/11 10:08:47;;;;;;;2.13;2.00;;;;;;;1.18;100.00;92860.94;4993049;28;20205;-91
2021/03/11 10:11:18;;;;;;;2.20;2.03;;;;;;;1.22;100.00;92861.38;4993174;28;20239;-92
2021/03/11 10:13:49;;;;;;;2.60;2.33;;;;;;;1.28;100.00;92876.97;4993342;28;20193;-90
2021/03/11 10:16:18;;;;;;;2.17;2.07;;;;;;;1.06;100.00;92908.97;4993117;28;20321;-91
2021/03/11 10:19:04;;;;;;;2.47;2.27;;;;;;;1.28;100.00;92902.84;4993353;28;20204;-90
2021/03/11 10:21:32;;;;;;;2.53;2.33;;;;;;;1.18;100.00;92913.47;4995732;28;20568;-90
2021/03/11 10:24:00;;;;;;;3.87;2.50;;;;;;;1.32;100.00;92904.06;4997078;28;20220;-91
2021/03/11 10:26:35;;;;;;;2.87;2.67;;;;;;;1.38;100.00;92916.22;4996799;28;20196;-91
2021/03/11 10:29:05;;;;;;;2.60;2.40;;;;;;;1.24;100.00;92953.31;4996400;28;20188;-91
2021/03/11 10:31:33;;;;;;;2.70;2.47;;;;;;;1.21;100.00;92955.47;4996386;28;20211;-91
2021/03/11 10:34:05;;;;;;;2.60;2.40;;;;;;;1.54;100.00;92928.13;4996384;28;20661;-91
2021/03/11 10:36:32;;;;;;;2.40;2.30;;;;;;;1.42;100.00;92947.72;4996250;28;20827;-92
2021/03/11 10:39:11;;;;;;;3.50;2.87;;;;;;;1.34;100.00;92964.16;4996355;28;20275;-92
2021/03/11 10:41:41;;;;;;;2.27;2.07;;;;;;;1.50;100.00;92968.31;4996532;28;20188;-92
2021/03/11 10:44:12;;;;;;;3.10;2.87;;;;;;;1.61;100.00;92964.44;4996186;28;20196;-92
2021/03/11 10:46:40;;;;;;;7.57;6.77;;;;;;;1.67;100.00;92954.16;4996202;28;20288;-92
2021/03/11 10:49:07;;;;;;;4.07;3.70;;;;;;;1.71;100.00;92970.09;4996292;28;20263;-92
2021/03/11 10:51:34;;;;;;;3.20;3.00;;;;;;;1.98;100.00;92955.59;4996365;28;20644;-92
2021/03/11 10:54:02;;;;;;;3.93;3.50;;;;;;;1.95;100.00;92996.59;4996644;28;20250;-93
2021/03/11 10:56:29;;;;;;;2.87;2.67;;;;;;;1.95;100.00;92997.41;4996767;28;20231;-92
2021/03/11 10:59:10;;;;;;;2.73;2.50;;;;;;;2.02;100.00;92997.47;4995787;28;20236;-91
2021/03/11 11:01:41;;;;;;;2.80;2.60;;;;;;;2.09;100.00;93022.44;4996849;28;20649;-91
2021/03/11 11:04:08;;;;;;;3.03;2.83;;;;;;;2.03;100.00;93028.34;4995900;28;20251;-92
2021/03/11 11:06:35;;;;;;;2.90;2.70;;;;;;;1.99;100.00;93049.63;4995809;28;20193;-91
2021/03/11 11:09:02;;;;;;;3.03;2.83;;;;;;;2.26;100.00;93040.31;4995984;28;20624;-91
2021/03/11 11:11:29;;;;;;;3.10;2.90;;;;;;;2.31;100.00;93043.13;4996200;28;20200;-92
2021/03/11 11:13:56;;;;;;;3.40;3.10;;;;;;;2.49;100.00;93038.28;4996103;28;20208;-92
2021/03/11 11:16:24;;;;;;;3.20;2.87;;;;;;;2.59;100.00;93046.53;4996301;28;20311;-92
2021/03/11 11:18:51;;;;;;;3.50;2.90;;;;;;;2.61;100.00;93069.69;4996289;28;20201;-93
2021/03/11 11:21:19;;;;;;;3.13;2.93;;;;;;;3.02;100.00;93072.34;4996219;28;20192;-93
2021/03/11 11:23:47;;;;;;;2.93;2.73;;;;;;;3.34;100.00;93060.53;4995854;28;20669;-93
2021/03/11 11:26:14;;;;;;;3.20;2.90;;;;;;;3.33;100.00;93068.53;4995579;28;20215;-91
2021/03/11 11:28:42;;;;;;;2.60;2.40;;;;;;;3.11;100.00;93098.94;4995463;28;20215;-93
2021/03/11 11:31:09;;;;;;;3.10;2.80;;;;;;;2.98;100.00;93138.59;4995720;28;20228;-93
2021/03/11 11:33:37;;;;;;;3.33;3.03;;;;;;;3.19;100.00;93139.53;4995779;28;20196;-93
2021/03/11 11:36:04;;;;;;;3.33;3.03;;;;;;;3.23;100.00;93127.78;4998722;28;20220;-94
2021/03/11 11:38:31;;;;;;;3.77;3.47;;;;;;;3.40;100.00;93105.69;4996953;28;20188;-95
2021/03/11 11:40:58;;;;;;;3.77;3.47;;;;;;;3.91;100.00;93091.50;4995881;28;20200;-95
2021/03/11 11:43:25;;;;;;;4.00;3.70;;;;;;;3.69;100.00;93128.00;4996175;28;20681;-95
2021/03/11 11:45:52;;;;;;;3.80;3.50;;;;;;;3.53;100.00;93149.09;4995210;28;20196;-95
2021/03/11 11:48:19;;;;;;;3.33;3.03;;;;;;;3.71;100.00;93162.38;4995018;28;20207;-94
2021/03/11 11:50:48;;;;;;;3.40;3.10;;;;;;;4.55;100.00;93137.03;4994936;28;20199;-95
2021/03/11 11:53:15;;;;;;;3.67;3.37;;;;;;;4.45;100.00;93174.63;4997118;28;20242;-96
2021/03/11 11:55:42;;;;;;;3.80;3.50;;;;;;;4.68;100.00;93152.66;5007258;28;20231;-95
2021/03/11 11:58:09;;;;;;;4.90;3.93;;;;;;;5.07;100.00;93153.66;4997663;28;20236;-96
2021/03/11 12:00:36;;;;;;;3.87;3.57;;;;;;;5.53;100.00;93163.22;4996645;28;20204;-96